Time;durP1;ratioP1;P1;durP2;ratioP2;P2;SDS_P1;SDS_P2;PMS_P1;PMS_P2;Temp;Humidity;BMP_temperature;BMP_pressure;BME280_temperature;BME280_humidity;BME280_pressure;Samples;Min_cycle;Max_cycle;Signal;HPM_P1;HPM_P2
2023/08/20 00:00:19;;;;;;;11.70;4.15;;;;;;;;;;5045979;28;20029;-77
2023/08/20 00:02:46;;;;;;;6.07;4.03;;;;;;;;;;5038438;28;20542;-77
2023/08/20 00:05:12;;;;;;;7.18;3.53;;;;;;;;;;5036503;28;20029;-78
2023/08/20 00:07:38;;;;;;;8.57;3.88;;;;;;;;;;5041487;28;20041;-78
2023/08/20 00:10:04;;;;;;;6.00;3.85;;;;;;;;;;5046661;28;20095;-78
2023/08/20 00:12:30;;;;;;;8.20;4.35;;;;;;;;;;5043464;28;20495;-78
2023/08/20 00:15:04;;;;;;;10.55;4.30;;;;;;;;;;5047550;28;20086;-78
2023/08/20 00:17:31;;;;;;;12.10;4.47;;;;;;;;;;5041479;28;20108;-77
2023/08/20 00:19:57;;;;;;;11.88;4.10;;;;;;;;;;5046824;28;20057;-78
2023/08/20 00:22:24;;;;;;;7.75;4.53;;;;;;;;;;5047719;28;20072;-78
2023/08/20 00:24:53;;;;;;;8.30;4.10;;;;;;;;;;5044609;28;20163;-77
2023/08/20 00:27:19;;;;;;;6.38;4.03;;;;;;;;;;5043107;28;20056;-77
2023/08/20 00:29:44;;;;;;;8.93;4.40;;;;;;;;;;5046020;28;20506;-80
2023/08/20 00:32:09;;;;;;;8.48;4.82;;;;;;;;;;5039476;28;20167;-77
2023/08/20 00:34:35;;;;;;;9.48;3.85;;;;;;;;;;5044316;28;20067;-78
2023/08/20 00:37:01;;;;;;;5.82;3.88;;;;;;;;;;5043996;28;20064;-77
2023/08/20 00:39:26;;;;;;;11.82;4.30;;;;;;;;;;5042034;28;20029;-77
2023/08/20 00:41:52;;;;;;;15.85;4.70;;;;;;;;;;5039094;28;20059;-77
2023/08/20 00:44:17;;;;;;;7.03;4.00;;;;;;;;;;5044257;28;20044;-78
2023/08/20 00:46:42;;;;;;;9.68;4.55;;;;;;;;;;5046855;28;20156;-78
2023/08/20 00:49:08;;;;;;;6.03;4.30;;;;;;;;;;5050805;28;20052;-78
2023/08/20 00:51:34;;;;;;;7.47;4.15;;;;;;;;;;5032439;28;20029;-78
2023/08/20 00:54:01;;;;;;;11.73;4.05;;;;;;;;;;5033820;28;20021;-78
2023/08/20 00:56:27;;;;;;;6.30;4.30;;;;;;;;;;5044735;28;20075;-77
2023/08/20 00:58:54;;;;;;;13.43;4.53;;;;;;;;;;5046215;28;20022;-80
2023/08/20 01:01:19;;;;;;;10.45;4.18;;;;;;;;;;5045807;28;20475;-78
2023/08/20 01:03:44;;;;;;;10.70;4.63;;;;;;;;;;5047395;28;20094;-80
2023/08/20 01:06:23;;;;;;;7.63;4.18;;;;;;;;;;5044556;28;20032;-79
2023/08/20 01:08:57;;;;;;;11.02;4.05;;;;;;;;;;5034803;28;20029;-78
2023/08/20 01:11:29;;;;;;;13.07;4.32;;;;;;;;;;5048798;28;20065;-78
2023/08/20 01:13:55;;;;;;;10.10;4.60;;;;;;;;;;5038840;28;20045;-78
2023/08/20 01:16:20;;;;;;;6.20;4.53;;;;;;;;;;5045025;28;20036;-78
2023/08/20 01:18:48;;;;;;;9.82;4.55;;;;;;;;;;5050366;28;20434;-78
2023/08/20 01:21:37;;;;;;;9.88;4.43;;;;;;;;;;5047853;28;20017;-78
2023/08/20 01:24:10;;;;;;;10.25;4.80;;;;;;;;;;5032767;28;20085;-78
2023/08/20 01:26:54;;;;;;;10.85;5.03;;;;;;;;;;5046825;28;20056;-79
2023/08/20 01:29:19;;;;;;;11.60;4.93;;;;;;;;;;5045767;28;20052;-78
2023/08/20 01:31:45;;;;;;;5.93;4.32;;;;;;;;;;5044901;28;20033;-78
2023/08/20 01:34:11;;;;;;;6.47;4.47;;;;;;;;;;5048407;28;20037;-78
2023/08/20 01:36:37;;;;;;;8.70;4.90;;;;;;;;;;5046819;28;20079;-78
2023/08/20 01:39:04;;;;;;;5.00;4.30;;;;;;;;;;5046527;28;20501;-78
2023/08/20 01:41:30;;;;;;;7.78;4.43;;;;;;;;;;5045066;28;20060;-77
2023/08/20 01:43:55;;;;;;;11.77;4.78;;;;;;;;;;5044621;28;20070;-77
2023/08/20 01:46:21;;;;;;;7.35;4.85;;;;;;;;;;5043911;28;20025;-79
2023/08/20 01:48:46;;;;;;;8.25;4.43;;;;;;;;;;5048110;28;20499;-79
2023/08/20 01:51:11;;;;;;;14.05;4.68;;;;;;;;;;5045353;28;20770;-79
2023/08/20 01:53:37;;;;;;;10.73;4.95;;;;;;;;;;5029380;28;20021;-79
2023/08/20 01:56:02;;;;;;;9.60;4.65;;;;;;;;;;5050167;28;20092;-79
2023/08/20 01:58:27;;;;;;;6.95;4.43;;;;;;;;;;5048888;28;20049;-79
2023/08/20 02:00:53;;;;;;;9.27;4.50;;;;;;;;;;5045978;28;20223;-78
2023/08/20 02:03:18;;;;;;;8.38;4.90;;;;;;;;;;5048475;28;20070;-78
2023/08/20 02:05:44;;;;;;;11.45;4.47;;;;;;;;;;5047835;28;20029;-78
2023/08/20 02:08:09;;;;;;;7.05;4.07;;;;;;;;;;5040317;28;20036;-78
2023/08/20 02:10:34;;;;;;;6.60;4.43;;;;;;;;;;5047587;28;20128;-78
2023/08/20 02:13:00;;;;;;;9.68;4.10;;;;;;;;;;5050189;28;20068;-78
2023/08/20 02:15:25;;;;;;;5.57;4.00;;;;;;;;;;5048525;28;20131;-78
2023/08/20 02:17:50;;;;;;;12.35;4.75;;;;;;;;;;5050511;28;20028;-80
2023/08/20 02:20:16;;;;;;;8.82;5.35;;;;;;;;;;5033427;28;20033;-78
2023/08/20 02:22:42;;;;;;;9.52;4.57;;;;;;;;;;5050093;28;20067;-78
2023/08/20 02:25:07;;;;;;;13.52;4.88;;;;;;;;;;5023164;28;20041;-79
2023/08/20 02:27:32;;;;;;;7.03;4.78;;;;;;;;;;5044439;28;20460;-78
2023/08/20 02:29:59;;;;;;;7.85;4.22;;;;;;;;;;5050249;28;20112;-78
2023/08/20 02:32:24;;;;;;;8.40;4.80;;;;;;;;;;5047037;28;20029;-78
2023/08/20 02:34:53;;;;;;;11.20;5.40;;;;;;;;;;5047243;28;20414;-78
2023/08/20 02:37:18;;;;;;;9.05;5.20;;;;;;;;;;5027538;28;20095;-78
2023/08/20 02:39:44;;;;;;;10.02;5.30;;;;;;;;;;5046019;28;20025;-79
2023/08/20 02:42:09;;;;;;;6.55;4.75;;;;;;;;;;5039536;28;20573;-78
2023/08/20 02:44:34;;;;;;;13.77;5.00;;;;;;;;;;5046094;28;20031;-78
2023/08/20 02:47:00;;;;;;;10.60;5.40;;;;;;;;;;5044392;28;20045;-78
2023/08/20 02:49:25;;;;;;;10.32;4.90;;;;;;;;;;5048003;28;20125;-78
2023/08/20 02:51:50;;;;;;;9.25;4.90;;;;;;;;;;5042796;28;21002;-78
2023/08/20 02:54:16;;;;;;;9.30;5.03;;;;;;;;;;5049151;28;20029;-78
2023/08/20 02:56:41;;;;;;;6.63;5.05;;;;;;;;;;5041112;28;20072;-77
2023/08/20 02:59:06;;;;;;;8.18;5.53;;;;;;;;;;5046827;28;20033;-78
2023/08/20 03:01:32;;;;;;;10.32;5.40;;;;;;;;;;5042154;28;20458;-78
2023/08/20 03:03:57;;;;;;;12.32;5.72;;;;;;;;;;5047681;28;20033;-77
2023/08/20 03:06:22;;;;;;;11.98;5.65;;;;;;;;;;5043471;28;20037;-78
2023/08/20 03:08:50;;;;;;;7.13;5.18;;;;;;;;;;5045580;28;20021;-77
2023/08/20 03:11:16;;;;;;;9.60;5.88;;;;;;;;;;5044936;28;20491;-78
2023/08/20 03:13:41;;;;;;;9.10;5.50;;;;;;;;;;5042127;28;20037;-78
2023/08/20 03:16:06;;;;;;;9.77;5.72;;;;;;;;;;5045546;28;20029;-78
2023/08/20 03:18:32;;;;;;;9.02;5.22;;;;;;;;;;5048395;28;20518;-78
2023/08/20 03:20:57;;;;;;;6.95;5.03;;;;;;;;;;5046378;28;20541;-78
2023/08/20 03:23:24;;;;;;;6.50;5.40;;;;;;;;;;5031853;28;20033;-78
2023/08/20 03:25:49;;;;;;;7.65;5.22;;;;;;;;;;5044274;28;20041;-78
2023/08/20 03:28:15;;;;;;;6.20;5.05;;;;;;;;;;5041585;28;20124;-78
2023/08/20 03:30:41;;;;;;;8.07;5.65;;;;;;;;;;5040668;28;20068;-78
2023/08/20 03:33:06;;;;;;;7.35;5.45;;;;;;;;;;5041031;28;20025;-78
2023/08/20 03:35:31;;;;;;;8.45;5.43;;;;;;;;;;5047175;28;20025;-79
2023/08/20 03:37:56;;;;;;;9.02;5.38;;;;;;;;;;5036919;28;20030;-78
2023/08/20 03:40:22;;;;;;;6.75;5.78;;;;;;;;;;5022265;28;20538;-78
2023/08/20 03:42:47;;;;;;;10.40;6.28;;;;;;;;;;5030503;28;20557;-78
2023/08/20 03:45:12;;;;;;;10.85;6.60;;;;;;;;;;5046441;28;20021;-78
2023/08/20 03:47:38;;;;;;;12.27;7.40;;;;;;;;;;5048282;28;20486;-78
2023/08/20 03:50:03;;;;;;;8.23;6.50;;;;;;;;;;5038215;28;20044;-79
2023/08/20 03:52:29;;;;;;;10.90;6.78;;;;;;;;;;5045517;28;20060;-78
2023/08/20 03:54:54;;;;;;;10.63;6.82;;;;;;;;;;5042188;28;20049;-80
2023/08/20 03:57:20;;;;;;;11.93;7.05;;;;;;;;;;5026927;28;20016;-78
2023/08/20 03:59:45;;;;;;;10.95;6.65;;;;;;;;;;5045144;28;20039;-78
2023/08/20 04:02:11;;;;;;;9.52;6.35;;;;;;;;;;5040989;28;20029;-78
2023/08/20 04:04:36;;;;;;;6.60;5.90;;;;;;;;;;5042732;28;20036;-78
2023/08/20 04:07:02;;;;;;;9.60;6.00;;;;;;;;;;5042653;28;20048;-78
2023/08/20 04:09:28;;;;;;;8.88;6.07;;;;;;;;;;5022204;28;20051;-78
2023/08/20 04:11:53;;;;;;;13.05;6.88;;;;;;;;;;5041847;28;20112;-78
2023/08/20 04:14:18;;;;;;;10.75;5.72;;;;;;;;;;5022388;28;20037;-79
2023/08/20 04:16:44;;;;;;;12.13;5.07;;;;;;;;;;5030051;28;20041;-78
2023/08/20 04:19:09;;;;;;;18.40;5.65;;;;;;;;;;5045899;28;20033;-79
2023/08/20 04:21:34;;;;;;;8.60;5.75;;;;;;;;;;5048143;28;20041;-79
2023/08/20 04:24:00;;;;;;;10.93;5.50;;;;;;;;;;5033504;28;20086;-79
2023/08/20 04:26:25;;;;;;;21.17;7.30;;;;;;;;;;5044046;28;20044;-78
2023/08/20 04:28:50;;;;;;;18.65;7.65;;;;;;;;;;5031458;28;20044;-78
2023/08/20 04:31:16;;;;;;;12.15;6.15;;;;;;;;;;5026895;28;20033;-78
2023/08/20 04:33:41;;;;;;;12.00;6.50;;;;;;;;;;5047476;28;20041;-78
2023/08/20 04:36:06;;;;;;;9.43;6.35;;;;;;;;;;5067888;23;20503;-86
2023/08/20 04:38:32;;;;;;;11.73;6.28;;;;;;;;;;5057104;28;20016;-81
2023/08/20 04:40:57;;;;;;;10.80;6.25;;;;;;;;;;5056639;28;20040;-81
2023/08/20 04:43:22;;;;;;;8.88;6.13;;;;;;;;;;5056147;28;20029;-81
2023/08/20 04:45:49;;;;;;;7.95;5.55;;;;;;;;;;5056543;28;20037;-80
2023/08/20 04:48:14;;;;;;;13.43;6.07;;;;;;;;;;5056037;28;20037;-78
2023/08/20 04:50:40;;;;;;;10.93;5.93;;;;;;;;;;5057148;28;20113;-82
2023/08/20 04:53:05;;;;;;;10.38;5.40;;;;;;;;;;5056391;28;20029;-79
2023/08/20 04:55:30;;;;;;;12.88;6.00;;;;;;;;;;5056488;28;20037;-82
2023/08/20 04:57:56;;;;;;;11.57;5.78;;;;;;;;;;5040643;28;20402;-81
2023/08/20 05:00:22;;;;;;;7.63;5.10;;;;;;;;;;5054434;28;20029;-81
2023/08/20 05:02:47;;;;;;;9.90;5.10;;;;;;;;;;5057696;28;20060;-83
2023/08/20 05:05:13;;;;;;;6.90;4.88;;;;;;;;;;5055202;28;20170;-82
2023/08/20 05:07:38;;;;;;;12.38;5.00;;;;;;;;;;5037194;28;20029;-82
2023/08/20 05:10:04;;;;;;;7.85;4.82;;;;;;;;;;5057398;28;20039;-81
2023/08/20 05:12:29;;;;;;;11.15;5.10;;;;;;;;;;5054581;28;20044;-80
2023/08/20 05:14:55;;;;;;;12.88;6.40;;;;;;;;;;5039112;28;20029;-80
2023/08/20 05:17:20;;;;;;;13.15;4.70;;;;;;;;;;5054395;28;20175;-79
2023/08/20 05:19:45;;;;;;;6.88;5.88;;;;;;;;;;5055212;28;20045;-80
2023/08/20 05:22:11;;;;;;;9.65;5.78;;;;;;;;;;5053510;28;20120;-80
2023/08/20 05:24:37;;;;;;;6.80;5.78;;;;;;;;;;5056308;28;20414;-82
2023/08/20 05:27:23;;;;;;;9.73;5.57;;;;;;;;;;5051754;28;20104;-81
2023/08/20 05:29:49;;;;;;;10.60;5.18;;;;;;;;;;5046700;28;20038;-78
2023/08/20 05:32:16;;;;;;;8.00;4.80;;;;;;;;;;5055307;28;20429;-81
2023/08/20 05:34:41;;;;;;;10.68;4.93;;;;;;;;;;5064286;28;20106;-82
2023/08/20 05:37:06;;;;;;;8.23;4.68;;;;;;;;;;5046636;28;20065;-78
2023/08/20 05:39:38;;;;;;;10.25;4.97;;;;;;;;;;5064549;28;20036;-83
2023/08/20 05:42:04;;;;;;;10.35;4.72;;;;;;;;;;5062410;28;20028;-81
2023/08/20 05:44:29;;;;;;;10.00;4.78;;;;;;;;;;5062119;28;20326;-83
2023/08/20 05:46:54;;;;;;;6.68;4.68;;;;;;;;;;5045754;28;20033;-80
2023/08/20 05:49:19;;;;;;;9.40;4.82;;;;;;;;;;5062430;28;20029;-82
2023/08/20 05:51:45;;;;;;;12.40;4.82;;;;;;;;;;5062218;28;20105;-82
2023/08/20 05:54:11;;;;;;;8.73;4.63;;;;;;;;;;5062398;28;20025;-82
2023/08/20 05:56:37;;;;;;;14.30;4.63;;;;;;;;;;5044901;28;20025;-82
2023/08/20 05:59:02;;;;;;;7.10;5.03;;;;;;;;;;5062274;28;20045;-81
2023/08/20 06:01:28;;;;;;;9.85;4.53;;;;;;;;;;5059916;28;20029;-80
2023/08/20 06:03:53;;;;;;;7.78;4.43;;;;;;;;;;5045287;28;20044;-82
2023/08/20 06:06:18;;;;;;;13.57;4.20;;;;;;;;;;5062652;28;20017;-81
2023/08/20 06:08:44;;;;;;;10.30;4.65;;;;;;;;;;5062420;28;20017;-83
2023/08/20 06:11:09;;;;;;;7.88;4.57;;;;;;;;;;5064209;28;20029;-83
2023/08/20 06:13:34;;;;;;;10.70;4.10;;;;;;;;;;5045855;28;20037;-84
2023/08/20 06:15:59;;;;;;;7.63;4.28;;;;;;;;;;5063824;28;20033;-83
2023/08/20 06:18:25;;;;;;;9.70;3.95;;;;;;;;;;5034253;28;20033;-81
2023/08/20 06:20:50;;;;;;;8.15;4.32;;;;;;;;;;5039252;28;20038;-82
2023/08/20 06:23:15;;;;;;;5.80;3.88;;;;;;;;;;5052910;28;20033;-82
2023/08/20 06:25:41;;;;;;;5.32;3.97;;;;;;;;;;5052371;28;20036;-81
2023/08/20 06:28:08;;;;;;;8.10;4.00;;;;;;;;;;5053048;28;20059;-83
2023/08/20 06:30:33;;;;;;;8.90;4.18;;;;;;;;;;5031896;28;20043;-83
2023/08/20 06:32:58;;;;;;;7.15;3.80;;;;;;;;;;5054342;28;20285;-83
2023/08/20 06:35:24;;;;;;;8.48;3.50;;;;;;;;;;5056156;28;20029;-81
2023/08/20 06:37:49;;;;;;;5.35;3.60;;;;;;;;;;5038042;28;20037;-81
2023/08/20 06:40:14;;;;;;;7.47;3.50;;;;;;;;;;5054748;28;20543;-82
2023/08/20 06:42:40;;;;;;;8.10;3.55;;;;;;;;;;5055222;28;20032;-83
2023/08/20 06:45:06;;;;;;;11.65;3.70;;;;;;;;;;5053810;28;20381;-82
2023/08/20 06:47:31;;;;;;;5.60;3.00;;;;;;;;;;5032691;28;20028;-82
2023/08/20 06:49:56;;;;;;;6.00;3.40;;;;;;;;;;5052534;28;20037;-82
2023/08/20 06:52:21;;;;;;;6.72;3.80;;;;;;;;;;5030486;28;20087;-82
2023/08/20 06:54:47;;;;;;;9.77;3.55;;;;;;;;;;5053183;28;20063;-83
2023/08/20 06:57:12;;;;;;;6.13;3.28;;;;;;;;;;5032675;28;20025;-81
2023/08/20 06:59:37;;;;;;;6.03;3.60;;;;;;;;;;5054154;28;20044;-79
2023/08/20 07:02:06;;;;;;;5.63;3.67;;;;;;;;;;5048403;28;20068;-80
2023/08/20 07:04:33;;;;;;;10.90;4.30;;;;;;;;;;5047642;28;20052;-84
2023/08/20 07:06:58;;;;;;;6.88;3.30;;;;;;;;;;5034609;28;20040;-83
2023/08/20 07:09:24;;;;;;;8.15;3.30;;;;;;;;;;5053988;28;20031;-81
2023/08/20 07:11:49;;;;;;;9.63;3.80;;;;;;;;;;5053442;28;20088;-82
2023/08/20 07:14:14;;;;;;;4.97;3.70;;;;;;;;;;5048845;28;20064;-83
2023/08/20 07:16:39;;;;;;;5.03;3.50;;;;;;;;;;5054363;28;20986;-81
2023/08/20 07:19:05;;;;;;;5.60;3.50;;;;;;;;;;5055261;28;20040;-83
2023/08/20 07:21:30;;;;;;;9.70;3.50;;;;;;;;;;5053102;28;20041;-83
2023/08/20 07:23:55;;;;;;;13.32;3.80;;;;;;;;;;5037982;28;20032;-83
2023/08/20 07:26:21;;;;;;;6.07;3.40;;;;;;;;;;5053238;28;20115;-84
2023/08/20 07:28:59;;;;;;;9.35;3.30;;;;;;;;;;5054363;28;20377;-83
2023/08/20 07:31:29;;;;;;;7.70;3.63;;;;;;;;;;5054792;28;20076;-84
2023/08/20 07:33:56;;;;;;;8.50;3.80;;;;;;;;;;5053321;28;20044;-83
2023/08/20 07:36:22;;;;;;;7.15;3.50;;;;;;;;;;5054012;28;20048;-81
2023/08/20 07:38:48;;;;;;;6.55;3.85;;;;;;;;;;5054859;28;20039;-82
2023/08/20 07:41:13;;;;;;;9.13;3.78;;;;;;;;;;5054737;28;20096;-83
2023/08/20 07:43:40;;;;;;;4.65;3.53;;;;;;;;;;5050869;28;20021;-84
2023/08/20 07:46:07;;;;;;;5.78;3.67;;;;;;;;;;5050783;28;20087;-82
2023/08/20 07:48:32;;;;;;;5.60;3.92;;;;;;;;;;5052734;28;20037;-79
2023/08/20 07:50:57;;;;;;;6.70;3.83;;;;;;;;;;5051188;28;20075;-84
2023/08/20 07:53:23;;;;;;;7.60;4.05;;;;;;;;;;5054122;28;20086;-81
2023/08/20 07:55:49;;;;;;;8.93;4.15;;;;;;;;;;5034818;28;20057;-83
2023/08/20 07:58:14;;;;;;;6.88;3.72;;;;;;;;;;5055983;28;20040;-82
2023/08/20 08:00:40;;;;;;;10.43;4.22;;;;;;;;;;5032117;28;20025;-80
2023/08/20 08:03:05;;;;;;;7.00;3.92;;;;;;;;;;5054033;28;20039;-84
2023/08/20 08:05:30;;;;;;;6.57;3.70;;;;;;;;;;5053060;28;20032;-84
2023/08/20 08:07:56;;;;;;;9.25;4.25;;;;;;;;;;5030426;28;20120;-83
2023/08/20 08:10:21;;;;;;;7.07;4.18;;;;;;;;;;5048921;28;20033;-82
2023/08/20 08:12:46;;;;;;;5.18;4.00;;;;;;;;;;5053065;28;20041;-80
2023/08/20 08:15:13;;;;;;;6.70;3.72;;;;;;;;;;5054132;28;20035;-82
2023/08/20 08:17:38;;;;;;;5.28;3.42;;;;;;;;;;5032214;28;20116;-81
2023/08/20 08:20:04;;;;;;;8.05;3.67;;;;;;;;;;5053927;28;20075;-82
2023/08/20 08:22:30;;;;;;;8.80;3.60;;;;;;;;;;5052993;28;20037;-83
2023/08/20 08:24:55;;;;;;;9.32;3.65;;;;;;;;;;5037938;28;20550;-82
2023/08/20 08:27:20;;;;;;;4.85;3.58;;;;;;;;;;5053962;28;20036;-84
2023/08/20 08:29:46;;;;;;;11.00;4.15;;;;;;;;;;5055404;28;20033;-85
2023/08/20 08:32:11;;;;;;;7.13;3.80;;;;;;;;;;5054539;28;20056;-83
2023/08/20 08:34:37;;;;;;;10.45;4.07;;;;;;;;;;5055203;28;20045;-83
2023/08/20 08:37:02;;;;;;;8.23;4.35;;;;;;;;;;5051340;28;20047;-82
2023/08/20 08:39:27;;;;;;;11.75;3.90;;;;;;;;;;5055046;28;20090;-82
2023/08/20 08:42:01;;;;;;;10.18;3.95;;;;;;;;;;5036557;28;20026;-85
2023/08/20 08:44:28;;;;;;;18.65;3.97;;;;;;;;;;5039861;28;20041;-83
2023/08/20 08:46:53;;;;;;;13.73;3.90;;;;;;;;;;5040550;28;20021;-82
2023/08/20 08:49:19;;;;;;;8.73;3.40;;;;;;;;;;5058449;28;20045;-82
2023/08/20 08:51:45;;;;;;;9.40;3.20;;;;;;;;;;5058121;28;20033;-82
2023/08/20 08:54:13;;;;;;;12.50;3.30;;;;;;;;;;5060070;28;20491;-82
2023/08/20 08:56:39;;;;;;;8.90;3.55;;;;;;;;;;5061320;28;20017;-82
2023/08/20 08:59:04;;;;;;;8.05;3.38;;;;;;;;;;5056093;28;20036;-81
2023/08/20 09:01:30;;;;;;;6.68;2.90;;;;;;;;;;5058291;28;20506;-81
2023/08/20 09:03:56;;;;;;;6.88;3.17;;;;;;;;;;5059320;28;20089;-80
2023/08/20 09:06:21;;;;;;;7.43;3.08;;;;;;;;;;5058448;28;20080;-80
2023/08/20 09:08:47;;;;;;;5.50;2.90;;;;;;;;;;5042243;28;20110;-81
2023/08/20 09:11:12;;;;;;;5.97;3.35;;;;;;;;;;5058220;28;20035;-82
2023/08/20 09:13:39;;;;;;;8.27;3.40;;;;;;;;;;5057739;28;20124;-82
2023/08/20 09:16:10;;;;;;;11.50;2.95;;;;;;;;;;5047221;28;20061;-84
2023/08/20 09:18:44;;;;;;;3.72;2.97;;;;;;;;;;5057639;28;20090;-81
2023/08/20 09:21:11;;;;;;;7.63;3.08;;;;;;;;;;5044731;28;20032;-82
2023/08/20 09:23:37;;;;;;;7.57;4.50;;;;;;;;;;5059284;28;20021;-81
2023/08/20 09:26:04;;;;;;;4.93;3.30;;;;;;;;;;5055942;28;20029;-84
2023/08/20 09:28:44;;;;;;;8.98;4.03;;;;;;;;;;5038474;28;20048;-83
2023/08/20 09:31:10;;;;;;;8.27;3.75;;;;;;;;;;5056443;28;20440;-82
2023/08/20 09:33:36;;;;;;;8.02;3.90;;;;;;;;;;5050553;28;20049;-82
2023/08/20 09:36:03;;;;;;;9.40;3.55;;;;;;;;;;5059371;28;20021;-85
2023/08/20 09:38:28;;;;;;;3.97;3.38;;;;;;;;;;5059575;28;20041;-81
2023/08/20 09:40:56;;;;;;;7.63;3.80;;;;;;;;;;5057827;28;20068;-79
2023/08/20 09:43:29;;;;;;;9.90;3.70;;;;;;;;;;5057719;28;20087;-82
2023/08/20 09:45:56;;;;;;;8.13;3.03;;;;;;;;;;5058247;28;20127;-83
2023/08/20 09:48:22;;;;;;;13.82;3.50;;;;;;;;;;5057198;28;20286;-83
2023/08/20 09:50:51;;;;;;;6.75;3.70;;;;;;;;;;5060097;28;20040;-83
2023/08/20 09:53:35;;;;;;;7.18;3.30;;;;;;;;;;5057043;28;20104;-83
2023/08/20 09:56:24;;;;;;;7.43;3.30;;;;;;;;;;5057401;28;20029;-84
2023/08/20 09:58:54;;;;;;;5.32;2.85;;;;;;;;;;5060693;28;20122;-84
2023/08/20 10:01:20;;;;;;;9.70;3.15;;;;;;;;;;5055861;28;20060;-83
2023/08/20 10:03:45;;;;;;;7.60;2.75;;;;;;;;;;5053934;28;20025;-83
2023/08/20 10:06:11;;;;;;;8.98;3.88;;;;;;;;;;5054258;28;20028;-82
2023/08/20 10:08:36;;;;;;;7.82;2.85;;;;;;;;;;5048937;28;20032;-82
2023/08/20 10:11:02;;;;;;;2.72;2.30;;;;;;;;;;5052113;28;20059;-84
2023/08/20 10:13:27;;;;;;;6.63;2.88;;;;;;;;;;5055033;28;20102;-83
2023/08/20 10:15:54;;;;;;;4.95;2.55;;;;;;;;;;5055077;28;20025;-84
2023/08/20 10:18:21;;;;;;;7.90;3.00;;;;;;;;;;5055794;28;20025;-84
2023/08/20 10:20:50;;;;;;;5.50;2.70;;;;;;;;;;5055551;28;20096;-81
2023/08/20 10:23:20;;;;;;;5.15;2.45;;;;;;;;;;5054847;28;20046;-83
2023/08/20 10:25:46;;;;;;;5.80;2.80;;;;;;;;;;5057727;28;20044;-83
2023/08/20 10:28:12;;;;;;;5.85;2.47;;;;;;;;;;5056212;28;20037;-84
2023/08/20 10:30:37;;;;;;;10.73;2.55;;;;;;;;;;5055095;28;20044;-84
2023/08/20 10:33:03;;;;;;;6.97;2.50;;;;;;;;;;5054941;28;20056;-82
2023/08/20 10:35:47;;;;;;;8.98;2.75;;;;;;;;;;5035498;28;20032;-83
2023/08/20 10:38:13;;;;;;;;;;;;;;;;;;5059847;23;20049;-78
2023/08/20 10:40:48;;;;;;;6.60;2.60;;;;;;;;;;5046209;28;19928;-78
2023/08/20 10:43:31;;;;;;;10.57;2.50;;;;;;;;;;5053014;28;20100;-78
2023/08/20 10:46:06;;;;;;;8.52;2.72;;;;;;;;;;5057096;28;20037;-79
2023/08/20 10:48:36;;;;;;;6.80;2.92;;;;;;;;;;5040258;28;20430;-80
2023/08/20 10:51:32;;;;;;;6.35;2.60;;;;;;;;;;5032449;28;20029;-80
2023/08/20 10:54:00;;;;;;;4.28;2.70;;;;;;;;;;5016848;28;20045;-79
2023/08/20 10:56:42;;;;;;;5.50;2.72;;;;;;;;;;5038218;28;20041;-80
2023/08/20 10:59:16;;;;;;;6.55;2.80;;;;;;;;;;5036558;28;20029;-80
2023/08/20 11:01:46;;;;;;;5.30;3.05;;;;;;;;;;5040046;28;20037;-79
2023/08/20 11:04:12;;;;;;;8.88;3.03;;;;;;;;;;5046381;28;20056;-79
2023/08/20 11:06:39;;;;;;;11.10;3.20;;;;;;;;;;5047839;28;20087;-80
2023/08/20 11:09:05;;;;;;;5.22;2.50;;;;;;;;;;5040906;28;20025;-79
2023/08/20 11:11:31;;;;;;;8.52;3.30;;;;;;;;;;5025953;28;20051;-80
2023/08/20 11:13:57;;;;;;;3.17;2.50;;;;;;;;;;5027114;28;20526;-79
2023/08/20 11:16:22;;;;;;;4.72;2.30;;;;;;;;;;5020827;28;20048;-79
2023/08/20 11:18:47;;;;;;;6.45;2.67;;;;;;;;;;5051760;28;20039;-80
2023/08/20 11:21:13;;;;;;;5.78;2.70;;;;;;;;;;5027814;28;20024;-80
2023/08/20 11:23:41;;;;;;;4.50;2.70;;;;;;;;;;5030593;28;20497;-79
2023/08/20 11:26:07;;;;;;;5.55;2.55;;;;;;;;;;5020345;28;20454;-80
2023/08/20 11:28:33;;;;;;;5.20;2.63;;;;;;;;;;5049275;28;20041;-84
2023/08/20 11:30:58;;;;;;;6.30;2.90;;;;;;;;;;5032647;28;20045;-79
2023/08/20 11:33:24;;;;;;;6.97;2.70;;;;;;;;;;5051180;28;20053;-79
2023/08/20 11:35:51;;;;;;;13.45;2.78;;;;;;;;;;5044772;28;20083;-80
2023/08/20 11:38:16;;;;;;;4.57;2.28;;;;;;;;;;5039090;28;20056;-80
2023/08/20 11:40:42;;;;;;;8.95;3.38;;;;;;;;;;5044590;28;20112;-80
2023/08/20 11:43:07;;;;;;;7.93;2.40;;;;;;;;;;5042189;28;20039;-80
2023/08/20 11:45:33;;;;;;;5.05;2.13;;;;;;;;;;5054209;28;20049;-80
2023/08/20 11:47:59;;;;;;;6.05;2.30;;;;;;;;;;5037060;28;20036;-80
2023/08/20 11:50:24;;;;;;;5.75;2.70;;;;;;;;;;5051336;28;20044;-80
2023/08/20 11:52:52;;;;;;;6.57;2.58;;;;;;;;;;5026705;28;20029;-80
2023/08/20 11:55:23;;;;;;;7.18;2.50;;;;;;;;;;5024758;28;20068;-80
2023/08/20 11:57:52;;;;;;;3.22;2.30;;;;;;;;;;5043675;28;20029;-80
2023/08/20 12:00:26;;;;;;;10.25;2.60;;;;;;;;;;5025791;28;20630;-81
2023/08/20 12:02:54;;;;;;;6.38;2.88;;;;;;;;;;5034353;28;20021;-79
2023/08/20 12:05:20;;;;;;;8.77;2.70;;;;;;;;;;5053849;28;20037;-78
2023/08/20 12:07:55;;;;;;;9.75;2.85;;;;;;;;;;5047909;28;20424;-80
2023/08/20 12:10:21;;;;;;;8.07;2.65;;;;;;;;;;5041893;28;20041;-78
2023/08/20 12:12:48;;;;;;;6.07;2.60;;;;;;;;;;5040512;28;20454;-78
2023/08/20 12:15:13;;;;;;;8.25;2.60;;;;;;;;;;5038411;28;20041;-79
2023/08/20 12:17:39;;;;;;;4.10;2.25;;;;;;;;;;5032688;28;20021;-79
2023/08/20 12:20:12;;;;;;;4.63;2.45;;;;;;;;;;5043279;28;20033;-77
2023/08/20 12:22:38;;;;;;;;;;;;;;;;;;5033082;28;20097;-77
2023/08/20 12:25:04;;;;;;;12.85;3.05;;;;;;;;;;5042757;28;19955;-78
2023/08/20 12:27:29;;;;;;;3.95;2.75;;;;;;;;;;5043719;28;20033;-78
2023/08/20 12:29:54;;;;;;;5.60;2.60;;;;;;;;;;5047194;28;20093;-79
2023/08/20 12:32:19;;;;;;;5.60;2.70;;;;;;;;;;5039892;28;20045;-78
2023/08/20 12:34:45;;;;;;;5.05;2.83;;;;;;;;;;5030446;28;20495;-79
2023/08/20 12:37:10;;;;;;;10.00;2.85;;;;;;;;;;5043696;28;20097;-79
2023/08/20 12:39:37;;;;;;;6.60;3.05;;;;;;;;;;5027203;28;20100;-79
2023/08/20 12:42:02;;;;;;;6.50;2.75;;;;;;;;;;5029193;28;20495;-79
2023/08/20 12:44:27;;;;;;;7.18;3.08;;;;;;;;;;5052462;28;20040;-79
2023/08/20 12:46:53;;;;;;;7.18;2.78;;;;;;;;;;5030727;28;20049;-79
2023/08/20 12:49:18;;;;;;;10.07;2.70;;;;;;;;;;5049585;28;20078;-80
2023/08/20 12:51:43;;;;;;;7.68;2.90;;;;;;;;;;5044253;28;20029;-80
2023/08/20 12:54:09;;;;;;;6.07;2.50;;;;;;;;;;5048332;28;20032;-79
2023/08/20 12:56:34;;;;;;;7.83;2.47;;;;;;;;;;5028516;28;20031;-78
2023/08/20 12:58:59;;;;;;;7.65;2.58;;;;;;;;;;5049624;28;20347;-79
2023/08/20 13:01:25;;;;;;;7.85;2.88;;;;;;;;;;5047234;28;20029;-78
2023/08/20 13:03:50;;;;;;;5.68;2.53;;;;;;;;;;5040206;28;20038;-80
2023/08/20 13:06:16;;;;;;;6.63;2.28;;;;;;;;;;5041257;28;20032;-80
2023/08/20 13:08:42;;;;;;;7.38;2.53;;;;;;;;;;5023070;28;20337;-79
2023/08/20 13:11:09;;;;;;;7.38;2.80;;;;;;;;;;5040510;28;20033;-80
2023/08/20 13:13:35;;;;;;;6.35;2.42;;;;;;;;;;5035398;28;20044;-80
2023/08/20 13:16:01;;;;;;;4.38;2.38;;;;;;;;;;5051393;28;20036;-80
2023/08/20 13:18:26;;;;;;;4.78;2.60;;;;;;;;;;5026319;28;20040;-79
2023/08/20 13:20:53;;;;;;;4.22;2.28;;;;;;;;;;5020344;28;20057;-79
2023/08/20 13:23:18;;;;;;;7.45;2.75;;;;;;;;;;5025932;28;20033;-80
2023/08/20 13:25:43;;;;;;;5.47;2.20;;;;;;;;;;5035085;28;20146;-79
2023/08/20 13:28:09;;;;;;;3.67;2.15;;;;;;;;;;5040057;28;20033;-80
2023/08/20 13:30:34;;;;;;;4.32;2.70;;;;;;;;;;5043849;28;20030;-80
2023/08/20 13:33:00;;;;;;;8.27;2.70;;;;;;;;;;5054256;28;20086;-79
2023/08/20 13:35:25;;;;;;;5.00;2.65;;;;;;;;;;5058559;28;20048;-80
2023/08/20 13:37:52;;;;;;;5.30;2.40;;;;;;;;;;5036078;28;20367;-79
2023/08/20 13:40:18;;;;;;;3.15;2.15;;;;;;;;;;5049692;28;20364;-79
2023/08/20 13:42:43;;;;;;;3.35;2.50;;;;;;;;;;5050601;28;20044;-80
2023/08/20 13:45:09;;;;;;;5.35;2.20;;;;;;;;;;5038138;28;20112;-78
2023/08/20 13:47:34;;;;;;;3.60;2.28;;;;;;;;;;5035342;28;20029;-79
2023/08/20 13:50:00;;;;;;;11.05;2.42;;;;;;;;;;5020754;28;20102;-80
2023/08/20 13:52:25;;;;;;;12.18;2.22;;;;;;;;;;5021158;28;20124;-79
2023/08/20 13:54:50;;;;;;;4.47;2.17;;;;;;;;;;5049475;28;20042;-79
2023/08/20 13:57:16;;;;;;;6.78;2.10;;;;;;;;;;5039620;28;20135;-80
2023/08/20 13:59:41;;;;;;;4.07;2.25;;;;;;;;;;5041460;28;20040;-80
2023/08/20 14:02:07;;;;;;;8.88;2.92;;;;;;;;;;5050574;28;20025;-80
2023/08/20 14:04:32;;;;;;;3.28;2.13;;;;;;;;;;5057757;28;20111;-80
2023/08/20 14:06:58;;;;;;;8.57;2.40;;;;;;;;;;5024182;28;20029;-79
2023/08/20 14:09:23;;;;;;;2.63;2.10;;;;;;;;;;5032205;28;20112;-80
2023/08/20 14:11:48;;;;;;;3.60;2.22;;;;;;;;;;5025285;28;20750;-80
2023/08/20 14:14:14;;;;;;;5.10;2.03;;;;;;;;;;5048838;28;20041;-78
2023/08/20 14:16:39;;;;;;;7.57;2.20;;;;;;;;;;5042346;28;20033;-80
2023/08/20 14:19:05;;;;;;;6.88;2.40;;;;;;;;;;5037130;28;20059;-79
2023/08/20 14:21:31;;;;;;;4.82;2.53;;;;;;;;;;5019414;28;20384;-80
2023/08/20 14:23:56;;;;;;;3.67;1.98;;;;;;;;;;5038215;28;20067;-78
2023/08/20 14:26:21;;;;;;;4.57;2.20;;;;;;;;;;5035889;28;20045;-79
2023/08/20 14:28:47;;;;;;;5.47;2.42;;;;;;;;;;5037970;28;20029;-80
2023/08/20 14:31:12;;;;;;;7.25;2.40;;;;;;;;;;5020144;28;20167;-79
2023/08/20 14:33:38;;;;;;;4.57;2.50;;;;;;;;;;5037166;28;20036;-79
2023/08/20 14:36:03;;;;;;;6.25;2.47;;;;;;;;;;5019671;28;20511;-78